createdAt,value
2018-06-12T00:02:04.350Z,1.10
2018-06-12T00:04:33.115Z,1.00
2018-06-12T00:07:02.311Z,1.27
2018-06-12T00:09:30.562Z,1.20
2018-06-12T00:11:59.138Z,1.33
2018-06-12T00:14:28.991Z,1.50
2018-06-12T00:16:58.854Z,1.57
2018-06-12T00:19:27.231Z,1.63
2018-06-12T00:21:56.219Z,1.50
2018-06-12T00:24:25.161Z,1.50
2018-06-12T00:26:53.608Z,1.30
2018-06-12T00:29:23.218Z,1.43
2018-06-12T00:31:52.066Z,1.27
2018-06-12T00:34:20.231Z,1.50
2018-06-12T00:36:49.273Z,1.60
2018-06-12T00:39:18.082Z,1.50
2018-06-12T00:41:47.159Z,1.60
2018-06-12T00:44:15.641Z,1.40
2018-06-12T00:46:44.094Z,1.50
2018-06-12T00:49:12.276Z,2.30
2018-06-12T00:51:41.018Z,1.30
2018-06-12T00:54:09.633Z,1.53
2018-06-12T00:56:49.376Z,1.50
2018-06-12T00:59:18.159Z,1.40
2018-06-12T01:01:46.926Z,1.50
2018-06-12T01:04:16.288Z,1.50
2018-06-12T01:06:45.248Z,1.73
2018-06-12T01:09:13.914Z,1.50
2018-06-12T01:11:42.792Z,1.57
2018-06-12T01:14:12.136Z,1.27
2018-06-12T01:16:41.153Z,1.50
2018-06-12T01:19:09.823Z,1.30
2018-06-12T01:21:38.079Z,1.40
2018-06-12T01:24:06.693Z,1.30
2018-06-12T01:26:34.859Z,1.57
2018-06-12T01:29:03.029Z,0.93
2018-06-12T01:31:32.129Z,1.50
2018-06-12T01:34:00.307Z,1.23
2018-06-12T01:36:29.798Z,1.80
2018-06-12T01:38:58.209Z,1.60
2018-06-12T01:41:26.958Z,1.40
2018-06-12T01:43:55.264Z,1.50
2018-06-12T01:46:23.600Z,1.47
2018-06-12T01:48:52.843Z,1.53
2018-06-12T01:51:21.618Z,1.63
2018-06-12T01:53:50.048Z,1.40
2018-06-12T01:56:18.292Z,1.47
2018-06-12T01:58:47.539Z,1.60
2018-06-12T02:01:16.055Z,1.40
2018-06-12T02:03:44.644Z,1.40
2018-06-12T02:06:13.713Z,1.50
2018-06-12T02:08:42.365Z,1.60
2018-06-12T02:11:11.394Z,1.40
2018-06-12T02:13:39.557Z,1.63
2018-06-12T02:16:08.557Z,1.60
2018-06-12T02:18:37.340Z,1.23
2018-06-12T02:21:05.843Z,1.37
2018-06-12T02:23:34.094Z,1.43
2018-06-12T02:26:02.597Z,1.20
2018-06-12T02:28:31.926Z,1.50
2018-06-12T02:31:00.064Z,1.00
2018-06-12T02:33:28.250Z,1.10
2018-06-12T02:35:56.643Z,1.10
2018-06-12T02:38:24.954Z,1.10
2018-06-12T02:40:53.644Z,1.00
2018-06-12T02:43:22.115Z,1.10
2018-06-12T02:45:50.481Z,0.97
2018-06-12T02:48:19.242Z,0.93
2018-06-12T02:50:48.702Z,1.40
2018-06-12T02:53:18.042Z,1.20
2018-06-12T02:55:47.038Z,0.93
2018-06-12T02:58:15.372Z,1.17
2018-06-12T03:00:44.733Z,1.17
2018-06-12T03:03:13.383Z,1.00
2018-06-12T03:05:42.067Z,1.00
2018-06-12T03:08:10.883Z,1.20
2018-06-12T03:10:40.118Z,1.03
2018-06-12T03:13:08.294Z,1.20
2018-06-12T03:15:36.858Z,1.00
2018-06-12T03:18:06.079Z,0.70
2018-06-12T03:20:43.865Z,1.10
2018-06-12T03:23:12.427Z,0.67
2018-06-12T03:25:41.493Z,1.00
2018-06-12T03:28:09.626Z,1.17
2018-06-12T03:30:37.819Z,0.80
2018-06-12T03:33:06.089Z,1.37
2018-06-12T03:35:36.035Z,1.07
2018-06-12T03:38:04.576Z,1.10
2018-06-12T03:40:32.762Z,1.03
2018-06-12T03:43:01.507Z,1.00
2018-06-12T03:45:29.909Z,0.90
2018-06-12T03:47:58.059Z,1.00
2018-06-12T03:50:26.749Z,1.13
2018-06-12T03:52:56.702Z,0.90
2018-06-12T03:55:25.559Z,1.10
2018-06-12T03:57:54.066Z,1.33
2018-06-12T04:00:22.460Z,0.73
2018-06-12T04:02:52.857Z,0.87
2018-06-12T04:05:22.265Z,1.00
2018-06-12T04:07:51.034Z,1.20
2018-06-12T04:10:19.973Z,0.90
2018-06-12T04:12:48.347Z,1.07
2018-06-12T04:15:17.943Z,1.00
2018-06-12T04:17:46.791Z,0.93
2018-06-12T04:20:14.991Z,0.90
2018-06-12T04:22:43.323Z,0.97
2018-06-12T04:25:11.586Z,0.90
2018-06-12T04:27:39.872Z,1.13
2018-06-12T04:30:08.189Z,0.90
2018-06-12T04:32:37.707Z,1.20
2018-06-12T04:35:05.854Z,1.10
2018-06-12T04:37:34.557Z,0.87
2018-06-12T04:40:02.782Z,0.80
2018-06-12T04:42:31.961Z,0.60
2018-06-12T04:45:00.710Z,1.10
2018-06-12T04:47:29.750Z,1.13
2018-06-12T04:49:58.446Z,1.03
2018-06-12T04:52:27.776Z,0.97
2018-06-12T04:54:56.722Z,0.77
2018-06-12T04:57:25.374Z,1.00
2018-06-12T04:59:53.807Z,0.87
2018-06-12T05:02:22.283Z,1.00
2018-06-12T05:04:51.625Z,0.80
2018-06-12T05:07:20.237Z,0.70
2018-06-12T05:09:49.350Z,0.87
2018-06-12T05:12:17.514Z,0.73
2018-06-12T05:14:45.729Z,0.60
2018-06-12T06:39:12.376Z,0.90
2018-06-12T06:41:40.618Z,0.73
2018-06-12T06:44:08.726Z,0.87
2018-06-12T06:46:37.669Z,0.83
2018-06-12T06:49:06.907Z,1.00
2018-06-12T06:51:35.751Z,0.72
2018-06-12T06:54:03.980Z,1.10
2018-06-12T06:56:33.273Z,0.83
2018-06-12T06:59:01.609Z,1.00
2018-06-12T07:01:31.285Z,1.00
2018-06-12T07:04:00.353Z,0.85
2018-06-12T07:06:29.374Z,1.20
2018-06-12T07:08:58.115Z,1.07
2018-06-12T07:11:26.900Z,0.70
2018-06-12T07:13:55.217Z,1.00
2018-06-12T07:16:24.205Z,1.00
2018-06-12T07:18:52.914Z,0.90
2018-06-12T07:21:24.099Z,0.80
2018-06-12T07:23:52.323Z,1.00
2018-06-12T07:26:20.502Z,0.80
2018-06-12T07:28:48.681Z,0.90
2018-06-12T07:31:18.268Z,0.70
2018-06-12T07:33:46.951Z,1.20
2018-06-12T07:36:15.611Z,0.70
2018-06-12T07:38:43.862Z,1.00
2018-06-12T07:41:12.191Z,0.70
2018-06-12T07:43:40.319Z,0.87
2018-06-12T07:46:08.939Z,0.90
2018-06-12T07:48:37.439Z,0.82
2018-06-12T07:51:06.328Z,1.20
2018-06-12T07:53:35.633Z,1.13
2018-06-12T07:56:04.026Z,0.83
2018-06-12T07:58:34.195Z,1.00
2018-06-12T08:01:03.064Z,0.87
2018-06-12T08:03:32.067Z,1.10
2018-06-12T08:06:02.083Z,1.00
2018-06-12T08:08:32.500Z,1.03
2018-06-12T08:11:01.558Z,0.90
2018-06-12T08:13:30.402Z,0.78
2018-06-12T08:15:59.147Z,0.85
2018-06-12T08:18:27.792Z,0.85
2018-06-12T08:20:56.857Z,0.65
2018-06-12T08:23:24.822Z,0.40
2018-06-12T08:25:52.960Z,1.02
2018-06-12T08:28:22.948Z,0.75
2018-06-12T08:30:52.076Z,0.88
2018-06-12T08:33:20.272Z,0.80
2018-06-12T08:35:48.815Z,0.82
2018-06-12T08:38:17.334Z,0.90
2018-06-12T08:40:45.488Z,1.00
2018-06-12T08:43:14.290Z,0.80
2018-06-12T08:45:42.564Z,1.05
2018-06-12T08:48:11.515Z,0.95
2018-06-12T08:50:40.686Z,1.10
2018-06-12T08:53:09.322Z,1.20
2018-06-12T08:55:38.090Z,1.02
2018-06-12T08:58:06.386Z,0.85
2018-06-12T09:00:34.570Z,1.15
2018-06-12T09:03:03.394Z,0.78
2018-06-12T09:05:32.255Z,1.00
2018-06-12T09:08:00.668Z,0.90
2018-06-12T09:10:28.818Z,1.05
2018-06-12T09:12:57.135Z,0.80
2018-06-12T09:15:25.959Z,0.93
2018-06-12T09:17:54.455Z,1.00
2018-06-12T09:20:22.564Z,1.20
2018-06-12T09:22:50.703Z,0.60
2018-06-12T09:25:19.365Z,0.70
2018-06-12T09:27:48.090Z,0.90
2018-06-12T09:30:17.311Z,0.75
2018-06-12T09:32:45.834Z,0.78
2018-06-12T09:35:15.333Z,0.95
2018-06-12T09:37:44.065Z,0.80
2018-06-12T09:40:12.893Z,0.85
2018-06-12T09:42:41.225Z,1.20
2018-06-12T09:45:09.427Z,0.93
2018-06-12T09:47:37.740Z,1.07
2018-06-12T09:50:06.646Z,1.32
2018-06-12T09:52:35.673Z,1.03
2018-06-12T09:55:04.646Z,1.00
2018-06-12T09:57:33.811Z,1.10
2018-06-12T10:00:02.236Z,1.15
2018-06-12T10:02:30.926Z,1.20
2018-06-12T10:04:59.228Z,1.22
2018-06-12T10:07:27.539Z,1.47
2018-06-12T10:09:56.845Z,1.10
2018-06-12T10:12:25.581Z,1.37
2018-06-12T10:14:53.548Z,1.40
2018-06-12T10:17:22.440Z,1.85
2018-06-12T10:19:51.459Z,1.52
2018-06-12T10:24:59.473Z,1.55
2018-06-12T10:27:28.077Z,1.00
2018-06-12T10:29:56.354Z,1.00
2018-06-12T10:32:25.133Z,1.00
2018-06-12T10:34:53.646Z,1.00
2018-06-12T10:37:22.145Z,0.88
2018-06-12T10:39:51.139Z,1.20
2018-06-12T10:42:19.902Z,0.93
2018-06-12T10:44:48.850Z,0.80
2018-06-12T10:47:17.143Z,1.00
2018-06-12T10:49:45.001Z,1.17
2018-06-12T10:52:13.214Z,1.27
2018-06-12T10:54:41.807Z,0.95
2018-06-12T10:57:11.166Z,1.05
2018-06-12T10:59:40.027Z,1.10
2018-06-12T11:02:08.334Z,1.00
2018-06-12T11:04:38.154Z,1.10
2018-06-12T11:07:06.673Z,1.10
2018-06-12T11:09:35.614Z,1.15
2018-06-12T11:12:04.425Z,1.10
2018-06-12T11:14:33.336Z,1.10
2018-06-12T11:17:03.218Z,1.07
2018-06-12T11:19:31.960Z,1.15
2018-06-12T11:22:00.910Z,1.00
2018-06-12T11:24:29.093Z,0.90
2018-06-12T11:26:57.364Z,0.82
2018-06-12T11:29:25.736Z,0.95
2018-06-12T11:31:54.525Z,1.05
2018-06-12T11:34:23.523Z,0.90
2018-06-12T11:36:53.059Z,1.12
2018-06-12T11:39:22.076Z,0.88
2018-06-12T11:41:50.253Z,0.70
2018-06-12T11:44:19.202Z,0.95
2018-06-12T11:46:48.246Z,0.90
2018-06-12T11:49:16.560Z,0.70
2018-06-12T11:51:45.038Z,0.70
2018-06-12T11:54:13.994Z,0.50
2018-06-12T11:56:42.988Z,0.30
2018-06-12T11:59:11.780Z,0.30
2018-06-12T12:01:40.493Z,0.42
2018-06-12T12:04:08.814Z,0.50
2018-06-12T12:06:36.903Z,0.40
2018-06-12T12:09:07.706Z,0.30
2018-06-12T12:11:37.294Z,0.33
2018-06-12T12:14:05.348Z,0.50
2018-06-12T12:16:33.511Z,0.40
2018-06-12T12:19:02.740Z,0.30
2018-06-12T12:21:31.535Z,0.40
2018-06-12T12:23:59.666Z,0.40
2018-06-12T12:26:27.894Z,0.37
2018-06-12T12:28:56.873Z,0.40
2018-06-12T12:31:25.118Z,0.40
2018-06-12T12:33:53.765Z,0.30
2018-06-12T12:36:22.694Z,0.30
2018-06-12T12:38:52.075Z,0.62
2018-06-12T12:41:20.329Z,0.40
2018-06-12T12:43:50.218Z,0.40
2018-06-12T12:46:18.193Z,0.65
2018-06-12T12:48:46.846Z,0.60
2018-06-12T12:51:15.065Z,0.40
2018-06-12T12:53:43.788Z,0.60
2018-06-12T12:56:12.805Z,0.55
2018-06-12T12:58:41.085Z,0.60
2018-06-12T13:01:09.434Z,0.45
2018-06-12T13:03:37.825Z,0.50
2018-06-12T13:06:06.230Z,0.70
2018-06-12T13:08:34.927Z,0.65
2018-06-12T13:11:04.390Z,0.50
2018-06-12T13:13:32.994Z,0.50
2018-06-12T13:16:01.242Z,0.50
2018-06-12T13:18:29.606Z,0.50
2018-06-12T13:20:58.208Z,0.50
2018-06-12T13:23:26.777Z,0.80
2018-06-12T13:25:55.619Z,0.62
2018-06-12T13:28:23.748Z,0.55
2018-06-12T13:30:52.626Z,0.55
2018-06-12T13:33:20.931Z,0.70
2018-06-12T13:35:49.010Z,0.65
2018-06-12T13:38:18.489Z,0.68
2018-06-12T13:40:46.815Z,0.70
2018-06-12T13:43:15.682Z,0.53
2018-06-12T13:45:44.315Z,0.60
2018-06-12T13:48:12.869Z,0.93
2018-06-12T13:50:42.262Z,0.60
2018-06-12T13:53:12.748Z,0.80
2018-06-12T13:55:40.922Z,0.70
2018-06-12T13:58:13.559Z,0.72
2018-06-12T14:00:42.423Z,0.90
2018-06-12T14:03:10.873Z,0.72
2018-06-12T14:05:39.653Z,0.80
2018-06-12T14:08:08.326Z,0.70
2018-06-12T14:10:36.931Z,0.75
2018-06-12T14:13:05.114Z,0.70
2018-06-12T14:15:33.077Z,0.55
2018-06-12T14:18:01.423Z,0.70
2018-06-12T14:20:29.838Z,0.60
2018-06-12T14:23:00.209Z,0.78
2018-06-12T14:25:29.472Z,0.53
2018-06-12T14:27:58.163Z,0.40
2018-06-12T14:30:27.085Z,0.40
2018-06-12T14:32:55.417Z,0.68
2018-06-12T14:35:24.163Z,0.60
2018-06-12T14:37:53.414Z,0.80
2018-06-12T14:40:21.667Z,0.53
2018-06-12T14:42:50.349Z,0.72
2018-06-12T14:45:19.298Z,0.50
2018-06-12T14:47:48.310Z,0.50
2018-06-12T14:50:16.543Z,0.60
2018-06-12T14:52:45.442Z,0.72
2018-06-12T14:55:16.400Z,0.60
2018-06-12T14:57:45.098Z,0.57
2018-06-12T15:00:14.421Z,0.72
2018-06-12T15:02:42.722Z,0.80
2018-06-12T15:05:10.720Z,0.90
2018-06-12T15:07:38.884Z,0.40
2018-06-12T15:10:07.170Z,0.90
2018-06-12T15:12:36.727Z,0.70
2018-06-12T15:15:05.269Z,0.60
2018-06-12T15:17:34.141Z,0.90
2018-06-12T15:20:02.927Z,1.15
2018-06-12T15:22:31.569Z,1.00
2018-06-12T15:25:00.709Z,0.90
2018-06-12T15:27:28.992Z,1.12
2018-06-12T15:29:58.562Z,0.82
2018-06-12T15:32:26.835Z,0.65
2018-06-12T15:34:56.310Z,0.70
2018-06-12T15:37:24.981Z,0.62
2018-06-12T15:39:53.489Z,0.70
2018-06-12T15:42:22.770Z,0.60
2018-06-12T15:44:51.591Z,0.75
2018-06-12T15:47:19.931Z,0.68
2018-06-12T15:49:49.093Z,0.70
2018-06-12T15:52:18.317Z,0.78
2018-06-12T15:54:46.605Z,0.75
2018-06-12T15:57:15.538Z,0.70
2018-06-12T15:59:44.504Z,0.70
2018-06-12T16:02:12.722Z,0.60
2018-06-12T16:04:41.184Z,0.70
2018-06-12T16:07:09.556Z,0.75
2018-06-12T16:09:37.714Z,0.75
2018-06-12T16:12:06.630Z,0.88
2018-06-12T16:14:35.391Z,0.80
2018-06-12T16:17:04.189Z,0.70
2018-06-12T16:19:32.618Z,0.53
2018-06-12T16:22:00.983Z,0.65
2018-06-12T16:24:30.258Z,0.78
2018-06-12T16:26:59.230Z,0.90
2018-06-12T16:29:28.133Z,0.60
2018-06-12T16:31:56.505Z,0.70
2018-06-12T16:34:25.333Z,0.85
2018-06-12T16:36:54.155Z,0.60
2018-06-12T16:40:51.561Z,1.00
2018-06-12T16:43:20.062Z,0.98
2018-06-12T16:45:48.413Z,0.90
2018-06-12T16:48:16.626Z,0.70
2018-06-12T16:50:45.461Z,1.02
2018-06-12T16:53:13.753Z,0.70
2018-06-12T16:55:42.046Z,0.90
2018-06-12T16:58:10.218Z,0.77
2018-06-12T17:00:38.355Z,0.70
2018-06-12T17:03:06.561Z,1.00
2018-06-12T17:05:35.282Z,1.00
2018-06-12T17:08:05.523Z,0.87
2018-06-12T17:10:34.622Z,0.90
2018-06-12T17:13:03.814Z,0.83
2018-06-12T17:15:32.462Z,1.10
2018-06-12T17:18:01.338Z,1.10
2018-06-12T17:20:30.573Z,0.90
2018-06-12T17:22:59.528Z,1.00
2018-06-12T17:25:27.946Z,1.03
2018-06-12T17:27:56.624Z,0.70
2018-06-12T17:30:25.073Z,1.03
2018-06-12T17:32:53.282Z,1.03
2018-06-12T17:35:21.471Z,0.90
2018-06-12T17:37:49.784Z,0.90
2018-06-12T17:40:20.220Z,0.97
2018-06-12T17:42:49.246Z,1.00
2018-06-12T17:45:17.569Z,1.10
2018-06-12T17:47:46.955Z,1.20
2018-06-12T17:50:16.279Z,0.83
2018-06-12T17:52:44.382Z,0.97
2018-06-12T17:55:13.267Z,0.93
2018-06-12T17:57:41.341Z,1.00
2018-06-12T18:00:09.632Z,0.90
2018-06-12T18:02:38.001Z,1.30
2018-06-12T18:05:06.457Z,1.00
2018-06-12T18:07:35.174Z,1.10
2018-06-12T18:10:04.070Z,1.13
2018-06-12T18:12:32.466Z,0.93
2018-06-12T18:15:01.292Z,1.20
2018-06-12T18:17:30.258Z,1.20
2018-06-12T18:20:01.499Z,1.30
2018-06-12T18:22:30.560Z,1.27
2018-06-12T18:24:59.789Z,1.17
2018-06-12T18:27:28.594Z,1.20
2018-06-12T18:29:56.718Z,1.33
2018-06-12T18:32:26.286Z,1.50
2018-06-12T18:34:54.528Z,1.40
2018-06-12T18:37:23.582Z,1.73
2018-06-12T18:39:52.638Z,1.40
2018-06-12T18:42:23.636Z,1.60
2018-06-12T18:44:52.066Z,1.37
2018-06-12T18:47:21.050Z,1.43
2018-06-12T18:49:49.593Z,1.40
2018-06-12T18:52:18.030Z,1.57
2018-06-12T18:54:47.617Z,1.70
2018-06-12T18:57:15.790Z,2.10
2018-06-12T18:59:44.790Z,2.10
2018-06-12T19:02:13.006Z,1.70
2018-06-12T19:04:42.119Z,1.60
2018-06-12T19:07:10.842Z,1.50
2018-06-12T19:09:39.907Z,1.80
2018-06-12T19:12:08.675Z,1.37
2018-06-12T19:14:36.673Z,1.90
2018-06-12T19:17:05.201Z,1.40
2018-06-12T19:19:34.762Z,1.27
2018-06-12T19:22:02.976Z,1.43
2018-06-12T19:24:31.565Z,1.60
2018-06-12T19:27:00.201Z,1.40
2018-06-12T19:29:29.474Z,1.50
2018-06-12T19:31:57.445Z,1.33
2018-06-12T19:34:25.701Z,1.70
2018-06-12T19:36:54.194Z,1.60
2018-06-12T19:39:23.050Z,1.70
2018-06-12T19:41:52.477Z,1.40
2018-06-12T19:44:21.026Z,1.60
2018-06-12T19:46:49.222Z,1.37
2018-06-12T19:49:18.105Z,1.70
2018-06-12T19:51:47.118Z,1.20
2018-06-12T19:54:15.867Z,1.27
2018-06-12T19:56:43.950Z,1.43
2018-06-12T19:59:13.049Z,1.43
2018-06-12T20:01:42.047Z,1.60
2018-06-12T20:04:10.933Z,1.80
2018-06-12T20:06:39.438Z,1.30
2018-06-12T20:09:08.493Z,1.50
2018-06-12T20:11:37.565Z,1.23
2018-06-12T20:14:06.265Z,1.40
2018-06-12T20:16:34.958Z,1.30
2018-06-12T20:19:03.174Z,1.60
2018-06-12T20:21:31.684Z,1.40
2018-06-12T20:23:59.999Z,1.50
2018-06-12T20:26:28.246Z,1.80
2018-06-12T20:28:56.339Z,1.40
2018-06-12T20:31:24.938Z,1.60
2018-06-12T20:33:53.582Z,1.80
2018-06-12T20:36:22.082Z,1.50
2018-06-12T20:38:50.576Z,1.50
2018-06-12T20:41:19.594Z,1.53
2018-06-12T20:43:48.214Z,1.40
2018-06-12T20:46:16.149Z,1.80
2018-06-12T20:48:44.734Z,1.87
2018-06-12T20:51:13.273Z,2.10
2018-06-12T20:53:41.612Z,1.80
2018-06-12T20:56:10.057Z,1.70
2018-06-12T20:58:38.452Z,2.40
2018-06-12T21:01:07.864Z,1.63
2018-06-12T21:03:36.906Z,1.50
2018-06-12T21:06:05.205Z,1.93
2018-06-12T21:08:34.175Z,1.63
2018-06-12T21:11:02.437Z,1.93
2018-06-12T21:13:30.476Z,1.43
2018-06-12T21:15:59.897Z,1.77
2018-06-12T21:18:28.519Z,1.83
2018-06-12T21:20:57.457Z,1.83
2018-06-12T21:23:26.638Z,1.87
2018-06-12T21:25:54.818Z,1.73
2018-06-12T21:28:24.841Z,1.40
2018-06-12T21:30:52.957Z,1.70
2018-06-12T21:33:21.269Z,1.50
2018-06-12T21:35:49.894Z,1.37
2018-06-12T21:38:18.706Z,1.50
2018-06-12T21:40:47.566Z,1.73
2018-06-12T21:43:16.045Z,1.60
2018-06-12T21:45:44.797Z,1.77
2018-06-12T21:48:13.554Z,1.30
2018-06-12T21:50:42.181Z,1.33
2018-06-12T21:53:10.947Z,1.87
2018-06-12T21:55:40.000Z,1.57
2018-06-12T21:58:08.583Z,1.40
2018-06-12T22:00:37.674Z,1.80
2018-06-12T22:03:06.123Z,1.60
2018-06-12T22:05:35.629Z,1.70
2018-06-12T22:08:03.985Z,1.80
2018-06-12T22:10:32.817Z,1.77
2018-06-12T22:13:01.555Z,1.60
2018-06-12T22:15:30.486Z,1.83
2018-06-12T22:17:58.670Z,1.70
2018-06-12T22:20:27.739Z,2.27
2018-06-12T22:22:56.022Z,1.93
2018-06-12T22:25:24.293Z,2.10
2018-06-12T22:27:53.283Z,1.87
2018-06-12T22:30:22.141Z,1.57
2018-06-12T22:32:50.286Z,1.97
2018-06-12T22:35:19.007Z,1.87
2018-06-12T22:37:47.273Z,1.60
2018-06-12T22:40:15.397Z,2.40
2018-06-12T22:42:44.632Z,2.40
2018-06-12T22:45:13.378Z,2.27
2018-06-12T22:47:41.798Z,2.43
2018-06-12T22:50:09.955Z,3.23
2018-06-12T22:52:38.652Z,3.07
2018-06-12T22:55:06.754Z,3.17
2018-06-12T22:57:34.878Z,2.70
2018-06-12T23:00:03.658Z,2.70
2018-06-12T23:02:32.442Z,2.40
2018-06-12T23:05:00.729Z,2.50
2018-06-12T23:07:29.715Z,2.40
2018-06-12T23:09:57.960Z,2.47
2018-06-12T23:12:25.890Z,2.90
2018-06-12T23:14:54.954Z,2.47
2018-06-12T23:17:23.234Z,2.20
2018-06-12T23:20:02.858Z,2.57
2018-06-12T23:22:31.186Z,2.30
2018-06-12T23:24:59.848Z,2.10
2018-06-12T23:27:28.828Z,2.37
2018-06-12T23:29:59.166Z,2.60
2018-06-12T23:32:27.487Z,2.40
2018-06-12T23:34:56.549Z,1.97
2018-06-12T23:37:25.024Z,2.50
2018-06-12T23:39:53.728Z,2.57
2018-06-12T23:42:22.690Z,2.60
2018-06-12T23:44:50.966Z,2.97
2018-06-12T23:47:19.274Z,2.20
2018-06-12T23:49:47.601Z,2.40
2018-06-12T23:52:15.851Z,1.73
2018-06-12T23:54:44.870Z,2.07
2018-06-12T23:57:13.498Z,2.20
2018-06-12T23:59:42.369Z,1.80
